Accueil
METAR-TAF:

METAR-TAF

Aéroports :

Aéroport de Lahr

Lahr, Allemagne

latitude: 48-22-09N, longitude: 007-49-40E, altitude: 156 m

Observation

Le bulletin a été fait il y a 30 minutes, à 07:20 UTC
Vent 4 kt de sud/sud-ouest
Température 0°C
Humidité 100%
Pression 1021 hPa
Visibilité 10 km ou plus
pas de nuages en-dessous de 1500 mètres et pas de cumulonimbus.

METAR: EDTL 060720Z 20004KT CAVOK M00/M00 Q1021

Heure: 08:50 (07:50 UTC)

Prévision

Le bulletin a été fait il y a 31 minutes, à 07:19 UTC
Prévision valable du 06 à 08 UTC au 06 à 15 UTC
Vent 4 kt de sud-ouest
Visibilité 10 km ou plus
pas de nuages en-dessous de 1500 mètres et pas de cumulonimbus.
Evoluant progressivement
du 06 à 11 UTC au 06 à 13 UTC
Vent 9 kt de sud

TAF: EDTL 060719Z 0608/0615 22004KT CAVOK BECMG 0611/0613 19009KT

Observations et prévisions météorologiques de plus de 4000 aéroports (messages METAR et TAF).

Les stations disponibles sont représentées par des disques jaunes et rouges sur la carte.

Passer la souris dessus pour voir le nom de la station.

Cliquer dessus pour voir les observations et prévisions météorologiques.

Pour changer de carte: cliquez sur les boutons verts avec une croix noire pour zoomer, sur le bouton vert avec un tiret pour effectuer un zoom arrière, ou sur les flèches vertes pour les cartes adjacentes.


METAR-TAF: